Jamison City, Pennsylvania
Current Conditions -  °F | °C
As of 2:55 AM on Saturday 20 Dec 2014 (Local Time) from KHZL Reporting Station
Overcast Overcast  
Wind Chill: 20°   Ceiling: 1800
Heat Index: 28°   Visibility: 10mi
Dew Point: 19°   Wind: 8mph
Humidity: 69%   Direction: 340°NNW
Pressure: 30.17"   Gusts: NA
Location:  41.2534°N, 76.3299°W
Report Text: KHZL 200755Z AUTO 34007KT 10SM OVC018 M02/M07 A3017 RMK AO2
Loading
Personal Weather Stations






























Interactive Weather Map New forecast layout! Learn more

10-Day Weather Forecast

Advertisements
Track Severe Weather on mobile